createdAt,value
2023-04-10T00:02:27.213Z,18.30
2023-04-10T00:04:54.835Z,20.00
2023-04-10T00:07:22.062Z,17.67
2023-04-10T00:09:49.280Z,17.70
2023-04-10T00:12:16.827Z,17.13
2023-04-10T00:14:44.300Z,18.33
2023-04-10T00:17:12.569Z,19.03
2023-04-10T00:19:39.853Z,16.17
2023-04-10T00:22:07.218Z,20.77
2023-04-10T00:24:34.666Z,18.67
2023-04-10T00:27:02.959Z,17.87
2023-04-10T00:29:30.342Z,18.23
2023-04-10T00:31:57.957Z,16.70
2023-04-10T00:34:26.056Z,16.43
2023-04-10T00:36:53.330Z,17.30
2023-04-10T00:39:20.798Z,18.37
2023-04-10T00:41:48.149Z,18.27
2023-04-10T00:44:15.321Z,15.50
2023-04-10T00:46:42.770Z,17.97
2023-04-10T00:49:12.401Z,19.03
2023-04-10T00:51:40.104Z,21.83
2023-04-10T00:54:10.244Z,20.97
2023-04-10T00:56:37.642Z,16.20
2023-04-10T00:59:07.148Z,17.67
2023-04-10T01:01:35.159Z,14.87
2023-04-10T01:04:03.169Z,17.47
2023-04-10T01:06:47.129Z,18.60
2023-04-10T01:09:21.004Z,16.23
2023-04-10T01:11:52.420Z,20.97
2023-04-10T01:14:38.981Z,18.67
2023-04-10T01:17:08.904Z,19.37
2023-04-10T01:20:00.197Z,16.53
2023-04-10T01:22:47.684Z,17.70
2023-04-10T01:25:33.727Z,20.57
2023-04-10T01:28:27.884Z,20.37
2023-04-10T01:30:58.484Z,17.63
2023-04-10T01:33:29.081Z,20.00
2023-04-10T01:35:57.316Z,18.80
2023-04-10T01:38:26.609Z,19.17
2023-04-10T01:40:54.559Z,20.90
2023-04-10T01:43:28.698Z,19.33
2023-04-10T01:45:57.398Z,18.57
2023-04-10T01:48:25.484Z,19.10
2023-04-10T01:50:54.061Z,20.23
2023-04-10T01:53:21.530Z,17.10
2023-04-10T01:55:49.288Z,17.80
2023-04-10T01:58:17.411Z,20.10
2023-04-10T02:00:44.705Z,19.60
2023-04-10T02:03:15.036Z,16.70
2023-04-10T02:05:54.691Z,17.63
2023-04-10T02:08:27.569Z,21.00
2023-04-10T02:10:57.455Z,18.17
2023-04-10T02:13:26.705Z,18.77
2023-04-10T02:15:55.930Z,16.70
2023-04-10T02:18:23.842Z,17.40
2023-04-10T02:20:52.913Z,21.00
2023-04-10T02:23:21.269Z,16.90
2023-04-10T02:25:48.604Z,18.33
2023-04-10T02:28:16.803Z,19.23
2023-04-10T02:30:45.170Z,17.70
2023-04-10T02:33:14.605Z,18.47
2023-04-10T02:35:42.140Z,15.80
2023-04-10T02:38:09.577Z,17.00
2023-04-10T02:40:38.284Z,15.33
2023-04-10T02:43:13.771Z,16.10
2023-04-10T02:45:41.783Z,17.83
2023-04-10T02:48:11.266Z,14.13
2023-04-10T02:50:38.595Z,13.70
2023-04-10T02:53:06.060Z,15.40
2023-04-10T02:55:34.497Z,15.77
2023-04-10T02:58:01.762Z,16.53
2023-04-10T03:00:29.279Z,15.27
2023-04-10T03:03:15.110Z,15.93
2023-04-10T03:05:49.988Z,16.83
2023-04-10T03:08:21.323Z,14.90
2023-04-10T03:10:48.696Z,14.10
2023-04-10T03:13:16.561Z,17.00
2023-04-10T03:15:45.351Z,13.23
2023-04-10T03:18:16.028Z,13.70
2023-04-10T03:20:48.738Z,15.20
2023-04-10T03:23:16.340Z,15.87
2023-04-10T03:25:44.798Z,13.70
2023-04-10T03:28:12.117Z,14.43
2023-04-10T03:30:39.736Z,12.47
2023-04-10T03:33:07.263Z,12.83
2023-04-10T03:35:34.974Z,17.83
2023-04-10T03:38:02.593Z,13.90
2023-04-10T03:40:30.102Z,13.80
2023-04-10T03:42:58.398Z,14.87
2023-04-10T03:45:26.036Z,17.10
2023-04-10T03:47:53.516Z,15.13
2023-04-10T03:50:21.343Z,15.40
2023-04-10T03:52:57.034Z,12.97
2023-04-10T03:55:26.124Z,13.87
2023-04-10T03:57:54.401Z,15.80
2023-04-10T04:00:26.383Z,14.80
2023-04-10T04:03:07.642Z,14.17
2023-04-10T04:06:03.262Z,14.03
2023-04-10T04:08:38.722Z,14.00
2023-04-10T04:11:38.574Z,15.37
2023-04-10T04:14:24.941Z,15.90
2023-04-10T04:17:15.582Z,14.13
2023-04-10T04:20:03.539Z,18.03
2023-04-10T04:22:57.306Z,16.83
2023-04-10T04:25:46.243Z,15.67
2023-04-10T04:28:19.632Z,16.80
2023-04-10T04:31:12.780Z,16.30
2023-04-10T04:34:00.729Z,14.23
2023-04-10T04:36:49.438Z,16.93
2023-04-10T04:39:34.511Z,17.40
2023-04-10T04:42:30.930Z,15.80
2023-04-10T04:45:21.638Z,16.20
2023-04-10T04:48:21.297Z,16.90
2023-04-10T04:51:11.069Z,14.63
2023-04-10T04:53:51.670Z,14.10
2023-04-10T04:56:42.418Z,16.37
2023-04-10T04:59:30.270Z,16.60
2023-04-10T05:02:00.150Z,16.23
2023-04-10T05:04:42.811Z,13.57
2023-04-10T05:07:33.005Z,13.90
2023-04-10T05:10:14.712Z,14.30
2023-04-10T05:13:01.896Z,18.10
2023-04-10T05:15:39.186Z,17.43
2023-04-10T05:18:29.518Z,16.37
2023-04-10T05:21:21.267Z,14.57
2023-04-10T05:24:07.234Z,14.77
2023-04-10T05:26:53.394Z,14.47
2023-04-10T05:29:29.781Z,13.50
2023-04-10T05:32:08.995Z,15.40
2023-04-10T05:34:44.194Z,17.50
2023-04-10T05:37:14.340Z,16.77
2023-04-10T05:39:58.477Z,14.13
2023-04-10T05:42:43.361Z,16.70
2023-04-10T05:45:18.300Z,16.70
2023-04-10T05:48:03.225Z,16.73
2023-04-10T05:50:43.453Z,22.53
2023-04-10T05:53:15.629Z,15.23
2023-04-10T05:56:02.220Z,17.07
2023-04-10T05:58:42.804Z,13.97
2023-04-10T06:01:13.431Z,14.70
2023-04-10T06:03:54.403Z,16.10
2023-04-10T06:06:24.174Z,15.17
2023-04-10T06:08:51.348Z,16.83
2023-04-10T06:11:18.524Z,14.13
2023-04-10T06:13:51.030Z,15.13
2023-04-10T06:16:21.842Z,15.60
2023-04-10T06:18:52.293Z,16.03
2023-04-10T06:21:19.790Z,16.40
2023-04-10T06:23:46.926Z,12.33
2023-04-10T06:26:14.084Z,14.50
2023-04-10T06:28:42.085Z,15.73
2023-04-10T06:31:09.546Z,15.20
2023-04-10T06:33:38.983Z,12.43
2023-04-10T06:36:08.808Z,19.30
2023-04-10T06:38:42.417Z,16.63
2023-04-10T06:41:09.691Z,16.33
2023-04-10T06:43:37.935Z,17.33
2023-04-10T06:46:05.221Z,14.17
2023-04-10T06:48:32.927Z,17.63
2023-04-10T06:51:03.532Z,19.30
2023-04-10T06:53:30.893Z,15.53
2023-04-10T06:55:58.079Z,17.30
2023-04-10T06:58:25.229Z,19.50
2023-04-10T07:00:52.482Z,17.17
2023-04-10T07:03:19.733Z,17.87
2023-04-10T07:05:46.997Z,18.63
2023-04-10T07:08:14.196Z,14.27
2023-04-10T07:10:41.339Z,17.70
2023-04-10T07:13:08.507Z,19.60
2023-04-10T07:15:36.140Z,18.00
2023-04-10T07:18:03.498Z,16.70
2023-04-10T07:20:33.019Z,20.10
2023-04-10T07:23:00.875Z,20.13
2023-04-10T07:25:28.136Z,18.80
2023-04-10T07:27:55.312Z,18.00
2023-04-10T07:30:22.470Z,22.77
2023-04-10T07:32:49.865Z,16.60
2023-04-10T07:35:17.619Z,17.97
2023-04-10T07:37:44.838Z,16.33
2023-04-10T07:40:12.163Z,22.23
2023-04-10T07:42:39.371Z,20.93
2023-04-10T07:45:06.812Z,17.10
2023-04-10T07:47:34.037Z,18.50
2023-04-10T07:50:01.363Z,21.47
2023-04-10T07:52:28.558Z,16.10
2023-04-10T07:54:55.826Z,17.73
2023-04-10T07:57:24.338Z,21.10
2023-04-10T07:59:51.453Z,16.80
2023-04-10T08:02:18.718Z,16.53
2023-04-10T08:04:46.031Z,22.20
2023-04-10T08:07:13.345Z,19.23
2023-04-10T08:09:41.011Z,22.20
2023-04-10T08:12:11.087Z,16.40
2023-04-10T08:14:38.258Z,17.43
2023-04-10T08:17:05.718Z,18.53
2023-04-10T08:19:32.941Z,16.27
2023-04-10T08:22:00.166Z,15.73
2023-04-10T08:24:27.413Z,15.53
2023-04-10T08:26:54.554Z,14.83
2023-04-10T08:31:49.584Z,15.13
2023-04-10T08:34:16.769Z,14.97
2023-04-10T08:36:43.990Z,13.67
2023-04-10T08:39:11.230Z,14.57
2023-04-10T08:41:41.445Z,12.60
2023-04-10T08:44:08.629Z,15.47
2023-04-10T08:46:42.826Z,14.37
2023-04-10T08:49:12.563Z,12.80
2023-04-10T08:51:42.356Z,12.37
2023-04-10T08:54:13.696Z,14.17
2023-04-10T08:56:42.652Z,13.00
2023-04-10T08:59:10.949Z,15.63
2023-04-10T09:01:41.597Z,13.10
2023-04-10T09:04:09.055Z,13.60
2023-04-10T09:06:37.620Z,13.23
2023-04-10T09:09:10.685Z,14.63
2023-04-10T09:11:56.822Z,11.23
2023-04-10T09:14:25.134Z,11.13
2023-04-10T09:16:53.790Z,13.10
2023-04-10T09:19:30.906Z,10.83
2023-04-10T09:21:58.271Z,11.60
2023-04-10T09:24:28.218Z,9.90
2023-04-10T09:26:55.796Z,12.40
2023-04-10T09:29:22.989Z,11.43
2023-04-10T09:31:51.321Z,13.80
2023-04-10T09:34:20.513Z,12.03
2023-04-10T09:36:55.392Z,11.83
2023-04-10T09:39:22.663Z,10.47
2023-04-10T09:41:50.704Z,13.60
2023-04-10T09:44:19.920Z,10.53
2023-04-10T09:46:47.364Z,9.50
2023-04-10T09:49:14.568Z,10.67
2023-04-10T09:51:44.648Z,10.20
2023-04-10T09:54:14.694Z,9.50
2023-04-10T09:56:42.787Z,9.93
2023-04-10T09:59:10.925Z,10.20
2023-04-10T10:01:42.272Z,10.40
2023-04-10T10:04:10.973Z,9.70
2023-04-10T10:06:38.908Z,10.43
2023-04-10T10:09:06.320Z,10.07
2023-04-10T10:11:35.277Z,10.47
2023-04-10T10:14:04.013Z,10.97
2023-04-10T10:16:44.147Z,7.90
2023-04-10T10:19:30.505Z,9.30
2023-04-10T10:21:59.254Z,8.17
2023-04-10T10:24:26.982Z,9.33
2023-04-10T10:26:58.694Z,8.77
2023-04-10T10:29:25.985Z,9.13
2023-04-10T10:31:53.606Z,10.00
2023-04-10T10:34:21.673Z,10.10
2023-04-10T10:36:50.283Z,8.23
2023-04-10T10:39:33.281Z,8.73
2023-04-10T10:42:14.869Z,9.10
2023-04-10T10:44:51.533Z,9.07
2023-04-10T10:47:20.687Z,9.03
2023-04-10T10:49:58.225Z,8.87
2023-04-10T10:52:44.326Z,8.47
2023-04-10T10:55:35.045Z,8.73
2023-04-10T10:58:06.128Z,8.50
2023-04-10T11:00:52.808Z,7.33
2023-04-10T11:03:23.277Z,8.77
2023-04-10T11:05:55.055Z,10.93
2023-04-10T11:08:43.960Z,10.60
2023-04-10T11:11:18.295Z,9.00
2023-04-10T11:13:57.326Z,8.93
2023-04-10T11:16:41.908Z,8.93
2023-04-10T11:19:16.286Z,9.07
2023-04-10T11:22:00.979Z,8.03
2023-04-10T11:24:28.511Z,7.37
2023-04-10T11:26:56.669Z,8.73
2023-04-10T11:29:31.353Z,8.73
2023-04-10T11:32:00.058Z,7.63
2023-04-10T11:34:27.688Z,9.77
2023-04-10T11:36:55.674Z,9.07
2023-04-10T11:39:22.940Z,12.60
2023-04-10T11:41:51.379Z,9.90
2023-04-10T11:44:29.932Z,7.17
2023-04-10T11:46:58.720Z,6.30
2023-04-10T11:49:27.583Z,5.97
2023-04-10T11:51:55.338Z,6.17
2023-04-10T11:54:23.672Z,6.50
2023-04-10T11:57:01.403Z,6.23
2023-04-10T11:59:29.302Z,6.20
2023-04-10T12:02:06.835Z,6.27
2023-04-10T12:04:34.655Z,5.67
2023-04-10T12:07:02.013Z,6.30
2023-04-10T12:09:29.347Z,5.83
2023-04-10T12:11:59.501Z,5.70
2023-04-10T12:14:45.296Z,7.00
2023-04-10T12:17:15.287Z,5.67
2023-04-10T12:19:42.534Z,5.10
2023-04-10T12:22:15.686Z,4.90
2023-04-10T12:24:45.022Z,7.13
2023-04-10T12:27:26.502Z,5.30
2023-04-10T12:29:54.678Z,4.90
2023-04-10T12:32:23.168Z,5.30
2023-04-10T12:34:54.092Z,4.70
2023-04-10T12:37:21.357Z,6.33
2023-04-10T12:39:48.683Z,5.20
2023-04-10T12:42:17.416Z,4.70
2023-04-10T12:45:13.679Z,3.70
2023-04-10T12:47:46.828Z,5.70
2023-04-10T12:50:14.901Z,4.27
2023-04-10T12:52:44.391Z,4.43
2023-04-10T12:55:15.842Z,4.60
2023-04-10T12:57:45.516Z,4.20
2023-04-10T13:00:20.390Z,4.00
2023-04-10T13:02:48.398Z,4.20
2023-04-10T13:05:15.899Z,6.00
2023-04-10T13:07:43.220Z,4.20
2023-04-10T13:10:11.467Z,4.80
2023-04-10T13:12:41.857Z,4.40
2023-04-10T13:15:10.646Z,4.23
2023-04-10T13:17:38.320Z,4.50
2023-04-10T13:20:08.351Z,4.13
2023-04-10T13:22:36.819Z,5.20
2023-04-10T13:25:06.056Z,4.10
2023-04-10T13:27:34.883Z,5.10
2023-04-10T13:30:05.710Z,5.07
2023-04-10T13:32:33.378Z,5.03
2023-04-10T13:35:01.967Z,6.07
2023-04-10T13:37:30.295Z,3.93
2023-04-10T13:39:57.499Z,3.97
2023-04-10T13:42:24.714Z,4.20
2023-04-10T13:44:53.228Z,4.60
2023-04-10T13:47:20.422Z,5.27
2023-04-10T13:49:47.631Z,5.00
2023-04-10T13:52:15.323Z,3.73
2023-04-10T13:54:42.548Z,4.63
2023-04-10T13:57:10.846Z,3.70
2023-04-10T13:59:38.046Z,3.33
2023-04-10T14:02:05.844Z,3.87
2023-04-10T14:04:34.148Z,3.30
2023-04-10T14:07:02.053Z,4.30
2023-04-10T14:09:29.707Z,4.30
2023-04-10T14:11:58.134Z,3.97
2023-04-10T14:14:25.643Z,3.67
2023-04-10T14:16:55.008Z,3.43
2023-04-10T14:19:22.285Z,4.00
2023-04-10T14:21:49.460Z,3.50
2023-04-10T14:24:16.609Z,4.43
2023-04-10T14:26:43.803Z,3.80
2023-04-10T14:29:10.995Z,5.83
2023-04-10T14:31:50.574Z,4.50
2023-04-10T14:34:26.445Z,4.33
2023-04-10T14:36:55.871Z,4.63
2023-04-10T14:39:24.448Z,4.20
2023-04-10T14:41:52.082Z,3.90
2023-04-10T14:44:19.394Z,4.03
2023-04-10T14:46:47.561Z,3.93
2023-04-10T14:49:15.200Z,4.37
2023-04-10T14:51:46.007Z,4.33
2023-04-10T14:54:13.226Z,4.73
2023-04-10T14:56:40.478Z,4.43
2023-04-10T14:59:08.260Z,4.10
2023-04-10T15:01:35.737Z,4.47
2023-04-10T15:04:04.290Z,4.27
2023-04-10T15:06:33.310Z,3.67
2023-04-10T15:09:00.805Z,3.43
2023-04-10T15:11:29.678Z,5.60
2023-04-10T15:13:59.103Z,4.17
2023-04-10T15:16:26.571Z,3.60
2023-04-10T15:18:53.764Z,5.20
2023-04-10T15:21:22.079Z,4.63
2023-04-10T15:23:52.891Z,3.30
2023-04-10T15:26:21.235Z,3.03
2023-04-10T15:28:48.958Z,4.20
2023-04-10T15:31:16.656Z,3.83
2023-04-10T15:33:44.792Z,4.77
2023-04-10T15:36:12.145Z,3.43
2023-04-10T15:38:40.016Z,3.33
2023-04-10T15:41:10.999Z,3.30
2023-04-10T15:43:39.801Z,2.90
2023-04-10T15:46:07.177Z,4.40
2023-04-10T15:48:34.792Z,3.20
2023-04-10T15:51:06.892Z,4.67
2023-04-10T15:53:38.260Z,3.20
2023-04-10T15:56:07.550Z,3.90
2023-04-10T15:58:37.031Z,4.27
2023-04-10T16:01:04.345Z,7.87
2023-04-10T16:03:32.686Z,3.70
2023-04-10T16:06:00.043Z,3.93
2023-04-10T16:08:27.385Z,3.27
2023-04-10T16:10:54.679Z,3.40
2023-04-10T16:13:23.242Z,3.20
2023-04-10T16:15:51.717Z,3.40
2023-04-10T16:18:19.082Z,3.40
2023-04-10T16:20:46.328Z,2.70
2023-04-10T16:23:16.335Z,5.50
2023-04-10T16:25:43.580Z,2.90
2023-04-10T16:28:10.762Z,3.90
2023-04-10T16:30:39.740Z,3.47
2023-04-10T16:33:07.918Z,4.10
2023-04-10T16:35:36.182Z,4.13
2023-04-10T16:38:03.766Z,3.73
2023-04-10T16:40:33.124Z,3.70
2023-04-10T16:43:02.961Z,3.60
2023-04-10T16:45:30.406Z,3.17
2023-04-10T16:48:01.301Z,3.80
2023-04-10T16:50:29.464Z,4.10
2023-04-10T16:52:57.241Z,5.93
2023-04-10T16:55:24.662Z,5.47
2023-04-10T16:57:54.641Z,8.70
2023-04-10T17:00:21.878Z,5.20
2023-04-10T17:02:49.819Z,6.00
2023-04-10T17:05:17.203Z,3.90
2023-04-10T17:07:45.241Z,5.77
2023-04-10T17:10:12.516Z,5.90
2023-04-10T17:12:39.765Z,3.63
2023-04-10T17:15:07.277Z,6.03
2023-04-10T17:17:34.730Z,3.10
2023-04-10T17:20:02.945Z,3.90
2023-04-10T17:22:30.477Z,3.60
2023-04-10T17:24:57.687Z,3.90
2023-04-10T17:27:24.861Z,4.60
2023-04-10T17:29:52.887Z,3.90
2023-04-10T17:32:20.129Z,3.80
2023-04-10T17:34:47.886Z,4.27
2023-04-10T17:37:16.410Z,4.60
2023-04-10T17:39:44.808Z,4.53
2023-04-10T17:42:13.704Z,4.90
2023-04-10T17:44:40.865Z,4.70
2023-04-10T17:47:09.101Z,4.43
2023-04-10T17:49:39.797Z,4.73
2023-04-10T17:52:08.066Z,4.20
2023-04-10T17:54:37.404Z,4.60
2023-04-10T17:57:05.262Z,5.33
2023-04-10T17:59:33.883Z,4.47
2023-04-10T18:02:02.181Z,5.00
2023-04-10T18:04:29.855Z,4.80
2023-04-10T18:06:58.414Z,4.13
2023-04-10T18:09:25.884Z,4.90
2023-04-10T18:11:55.217Z,4.73
2023-04-10T18:14:22.357Z,6.20
2023-04-10T18:16:49.640Z,4.30
2023-04-10T18:19:16.819Z,5.10
2023-04-10T18:21:46.781Z,5.10
2023-04-10T18:24:16.021Z,4.90
2023-04-10T18:26:45.080Z,4.33
2023-04-10T18:29:12.277Z,8.10
2023-04-10T18:31:39.450Z,4.53
2023-04-10T18:34:08.623Z,5.70
2023-04-10T18:36:36.140Z,4.50
2023-04-10T18:39:04.611Z,5.70
2023-04-10T18:41:32.410Z,5.03
2023-04-10T18:44:05.531Z,4.10
2023-04-10T18:46:33.887Z,4.70
2023-04-10T18:49:01.709Z,4.67
2023-04-10T18:51:34.981Z,4.40
2023-04-10T18:54:02.627Z,5.20
2023-04-10T18:56:30.145Z,4.80
2023-04-10T18:58:57.327Z,4.63
2023-04-10T19:01:24.951Z,4.10
2023-04-10T19:03:56.014Z,4.50
2023-04-10T19:06:23.994Z,4.50
2023-04-10T19:08:52.688Z,5.07
2023-04-10T19:11:19.930Z,4.77
2023-04-10T19:13:48.666Z,4.83
2023-04-10T19:16:19.237Z,4.53
2023-04-10T19:18:47.266Z,4.60
2023-04-10T19:21:14.828Z,5.23
2023-04-10T19:23:43.033Z,4.73
2023-04-10T19:26:11.643Z,6.33
2023-04-10T19:28:40.063Z,4.20
2023-04-10T19:31:07.988Z,5.00
2023-04-10T19:33:35.413Z,5.87
2023-04-10T19:36:02.684Z,4.10
2023-04-10T19:38:31.525Z,4.53
2023-04-10T19:41:00.093Z,4.40
2023-04-10T19:43:27.301Z,7.27
2023-04-10T19:45:55.035Z,4.40
2023-04-10T19:48:24.386Z,4.40
2023-04-10T19:50:51.576Z,5.23
2023-04-10T19:53:19.143Z,4.53
2023-04-10T19:55:46.667Z,4.10
2023-04-10T19:58:35.591Z,4.40
2023-04-10T20:01:04.971Z,4.37
2023-04-10T20:03:32.731Z,5.13
2023-04-10T20:06:00.642Z,3.90
2023-04-10T20:08:27.866Z,4.43
2023-04-10T20:10:56.676Z,4.47
2023-04-10T20:13:28.023Z,10.70
2023-04-10T20:15:55.695Z,4.20
2023-04-10T20:18:22.928Z,4.93
2023-04-10T20:20:50.232Z,4.00
2023-04-10T20:23:17.635Z,3.97
2023-04-10T20:25:45.740Z,4.20
2023-04-10T20:28:12.972Z,4.80
2023-04-10T20:30:41.975Z,4.50
2023-04-10T20:33:09.173Z,4.33
2023-04-10T20:35:36.386Z,4.30
2023-04-10T20:38:04.668Z,4.80
2023-04-10T20:40:31.876Z,5.27
2023-04-10T20:43:00.366Z,4.80
2023-04-10T20:45:29.177Z,4.60
2023-04-10T20:47:57.713Z,4.80
2023-04-10T20:50:26.216Z,5.00
2023-04-10T20:52:53.500Z,4.70
2023-04-10T20:55:20.701Z,4.97
2023-04-10T20:57:47.885Z,4.50
2023-04-10T21:00:17.034Z,5.47
2023-04-10T21:02:44.329Z,5.13
2023-04-10T21:05:15.234Z,4.50
2023-04-10T21:07:45.713Z,7.00
2023-04-10T21:10:12.862Z,5.10
2023-04-10T21:12:40.332Z,7.80
2023-04-10T21:15:07.843Z,5.97
2023-04-10T21:17:38.202Z,4.77
2023-04-10T21:20:06.062Z,4.67
2023-04-10T21:22:33.677Z,4.53
2023-04-10T21:25:00.842Z,4.80
2023-04-10T21:27:28.021Z,4.47
2023-04-10T21:29:55.264Z,4.80
2023-04-10T21:32:22.550Z,4.77
2023-04-10T21:34:50.145Z,4.80
2023-04-10T21:37:17.646Z,5.40
2023-04-10T21:39:44.920Z,4.77
2023-04-10T21:42:12.212Z,4.77
2023-04-10T21:44:39.376Z,4.50
2023-04-10T21:47:06.619Z,4.10
2023-04-10T21:49:33.808Z,5.00
2023-04-10T21:52:01.014Z,4.93
2023-04-10T21:54:29.006Z,4.67
2023-04-10T21:56:57.447Z,4.10
2023-04-10T21:59:25.590Z,4.83
2023-04-10T22:01:52.997Z,4.63
2023-04-10T22:04:20.396Z,4.90
2023-04-10T22:06:48.142Z,4.57
2023-04-10T22:09:15.445Z,6.60
2023-04-10T22:11:43.190Z,4.80
2023-04-10T22:14:16.481Z,4.30
2023-04-10T22:16:45.206Z,4.33
2023-04-10T22:19:13.385Z,4.57
2023-04-10T22:21:40.787Z,4.90
2023-04-10T22:24:08.127Z,4.03
2023-04-10T22:26:35.791Z,4.93
2023-04-10T22:29:04.395Z,4.40
2023-04-10T22:31:31.559Z,4.30
2023-04-10T22:33:58.774Z,3.67
2023-04-10T22:36:31.396Z,6.00
2023-04-10T22:38:58.526Z,4.13
2023-04-10T22:41:25.847Z,4.33
2023-04-10T22:43:52.998Z,4.77
2023-04-10T22:46:20.226Z,4.13
2023-04-10T22:48:47.505Z,5.27
2023-04-10T22:51:14.857Z,4.73
2023-04-10T22:53:44.127Z,5.00
2023-04-10T22:56:11.581Z,4.73
2023-04-10T22:58:40.338Z,5.57
2023-04-10T23:01:10.527Z,4.50
2023-04-10T23:03:38.198Z,4.63
2023-04-10T23:06:05.772Z,4.80
2023-04-10T23:08:33.741Z,4.97
2023-04-10T23:11:01.314Z,5.17
2023-04-10T23:13:30.455Z,5.10
2023-04-10T23:15:58.845Z,4.57
2023-04-10T23:18:26.204Z,6.27
2023-04-10T23:20:53.650Z,5.17
2023-04-10T23:23:21.357Z,5.60
2023-04-10T23:25:58.222Z,8.90
2023-04-10T23:28:25.882Z,6.17
2023-04-10T23:30:53.263Z,6.00
2023-04-10T23:33:22.123Z,5.43
2023-04-10T23:35:50.697Z,4.87
2023-04-10T23:38:18.137Z,5.30
2023-04-10T23:40:46.440Z,5.27
2023-04-10T23:43:16.327Z,5.77
2023-04-10T23:45:45.850Z,6.30
2023-04-10T23:48:13.287Z,6.10
2023-04-10T23:50:40.645Z,5.87
2023-04-10T23:53:08.716Z,5.80
2023-04-10T23:55:36.567Z,4.20
2023-04-10T23:58:04.069Z,3.77
